createdAt,value
2019-05-05T00:01:29.030Z,62.84
2019-05-05T00:04:15.988Z,63.27
2019-05-05T00:06:44.665Z,63.54
2019-05-05T00:09:14.612Z,64.18
2019-05-05T00:12:00.488Z,64.57
2019-05-05T00:14:39.720Z,64.70
2019-05-05T00:17:14.441Z,64.71
2019-05-05T00:19:42.813Z,65.03
2019-05-05T00:22:11.318Z,65.41
2019-05-05T00:24:40.097Z,65.14
2019-05-05T00:27:08.891Z,65.47
2019-05-05T00:29:37.240Z,65.70
2019-05-05T00:32:05.855Z,65.84
2019-05-05T00:34:34.959Z,65.79
2019-05-05T00:37:04.673Z,65.75
2019-05-05T00:39:34.528Z,65.64
2019-05-05T00:42:04.813Z,65.77
2019-05-05T00:44:35.244Z,65.45
2019-05-05T00:47:16.995Z,65.39
2019-05-05T00:49:49.330Z,65.53
2019-05-05T00:52:17.093Z,65.08
2019-05-05T00:54:45.547Z,65.01
2019-05-05T00:57:14.979Z,64.98
2019-05-05T00:59:45.232Z,64.93
2019-05-05T01:02:27.765Z,64.97
2019-05-05T01:04:57.845Z,64.96
2019-05-05T01:07:26.369Z,64.88
2019-05-05T01:09:54.719Z,64.69
2019-05-05T01:12:24.374Z,64.79
2019-05-05T01:14:52.811Z,64.91
2019-05-05T01:17:21.314Z,64.87
2019-05-05T01:20:01.106Z,65.13
2019-05-05T01:22:20.003Z,64.75
2019-05-05T01:24:48.705Z,64.75
2019-05-05T01:27:17.212Z,65.01
2019-05-05T01:29:45.660Z,65.06
2019-05-05T01:32:15.813Z,64.85
2019-05-05T01:34:45.911Z,64.98
2019-05-05T01:37:16.151Z,65.49
2019-05-05T01:39:46.194Z,65.19
2019-05-05T01:42:16.465Z,65.28
2019-05-05T01:44:44.978Z,65.30
2019-05-05T01:47:14.795Z,65.37
2019-05-05T01:49:45.257Z,65.55
2019-05-05T01:52:14.900Z,65.42
2019-05-05T01:54:44.659Z,65.51
2019-05-05T01:57:14.801Z,65.71
2019-05-05T01:59:44.756Z,65.81
2019-05-05T02:02:14.602Z,66.37
2019-05-05T02:04:44.714Z,66.31
2019-05-05T02:07:14.495Z,66.60
2019-05-05T02:09:44.820Z,66.47
2019-05-05T02:12:15.195Z,66.59
2019-05-05T02:14:44.902Z,66.96
2019-05-05T02:17:14.412Z,66.99
2019-05-05T02:19:44.330Z,67.11
2019-05-05T02:22:14.642Z,67.11
2019-05-05T02:24:44.427Z,67.36
2019-05-05T02:27:14.556Z,67.54
2019-05-05T02:29:47.684Z,67.39
2019-05-05T02:32:17.740Z,67.45
2019-05-05T02:34:48.122Z,67.69
2019-05-05T02:37:16.642Z,67.72
2019-05-05T02:39:57.235Z,67.92
2019-05-05T02:42:16.117Z,68.21
2019-05-05T02:44:45.759Z,68.41
2019-05-05T02:47:19.159Z,68.27
2019-05-05T02:49:48.032Z,68.30
2019-05-05T02:52:17.961Z,68.47
2019-05-05T02:54:46.317Z,68.85
2019-05-05T02:57:15.347Z,68.83
2019-05-05T02:59:45.663Z,68.46
2019-05-05T03:02:23.595Z,68.73
2019-05-05T03:04:53.634Z,68.77
2019-05-05T03:07:25.054Z,69.20
2019-05-05T03:09:54.549Z,69.11
2019-05-05T03:12:24.335Z,69.10
2019-05-05T03:14:53.806Z,69.32
2019-05-05T03:17:23.440Z,69.39
2019-05-05T03:19:53.597Z,69.61
2019-05-05T03:22:23.684Z,69.66
2019-05-05T03:24:54.150Z,69.74
2019-05-05T03:27:23.738Z,69.95
2019-05-05T03:29:53.541Z,69.82
2019-05-05T03:32:25.566Z,70.22
2019-05-05T03:34:53.694Z,70.29
2019-05-05T03:37:25.044Z,70.50
2019-05-05T03:39:55.537Z,70.48
2019-05-05T03:42:28.392Z,70.05
2019-05-05T03:44:58.770Z,70.42
2019-05-05T03:47:28.899Z,70.57
2019-05-05T03:49:57.352Z,70.66
2019-05-05T03:52:26.093Z,70.69
2019-05-05T03:54:56.681Z,70.58
2019-05-05T03:57:25.083Z,70.55
2019-05-05T03:59:54.721Z,70.60
2019-05-05T04:02:28.045Z,70.64
2019-05-05T04:05:04.127Z,70.93
2019-05-05T04:07:33.477Z,70.64
2019-05-05T04:10:03.756Z,70.65
2019-05-05T04:12:34.583Z,70.78
2019-05-05T04:15:04.400Z,70.93
2019-05-05T04:17:34.854Z,71.12
2019-05-05T04:20:21.165Z,70.97
2019-05-05T04:22:49.941Z,70.90
2019-05-05T04:25:18.372Z,70.98
2019-05-05T04:27:46.819Z,70.90
2019-05-05T04:30:15.696Z,70.74
2019-05-05T04:32:44.308Z,70.79
2019-05-05T04:35:14.049Z,70.90
2019-05-05T04:37:43.767Z,70.87
2019-05-05T04:40:14.811Z,70.79
2019-05-05T04:42:44.105Z,70.69
2019-05-05T04:45:14.797Z,71.08
2019-05-05T04:47:44.964Z,71.01
2019-05-05T04:50:29.883Z,70.87
2019-05-05T04:52:59.911Z,70.90
2019-05-05T04:55:28.348Z,70.71
2019-05-05T04:57:56.783Z,70.72
2019-05-05T05:00:25.545Z,71.09
2019-05-05T05:02:58.304Z,71.38
2019-05-05T05:05:28.547Z,71.53
2019-05-05T05:07:58.080Z,71.41
2019-05-05T05:10:26.672Z,71.33
2019-05-05T05:12:55.124Z,71.47
2019-05-05T05:15:24.026Z,71.73
2019-05-05T05:18:04.089Z,71.44
2019-05-05T05:20:34.015Z,71.23
2019-05-05T05:23:03.648Z,71.07
2019-05-05T05:25:32.159Z,70.71
2019-05-05T05:28:00.571Z,70.62
2019-05-05T05:30:28.933Z,70.56
2019-05-05T05:32:57.403Z,70.09
2019-05-05T05:35:25.835Z,69.74
2019-05-05T05:37:57.398Z,69.61
2019-05-05T05:40:26.130Z,69.31
2019-05-05T05:42:54.559Z,69.31
2019-05-05T05:45:27.921Z,69.10
2019-05-05T05:48:09.697Z,69.04
2019-05-05T05:50:44.330Z,68.75
2019-05-05T05:53:13.945Z,68.63
2019-05-05T05:55:44.650Z,68.50
2019-05-05T05:58:14.081Z,68.67
2019-05-05T06:00:44.293Z,68.48
2019-05-05T06:03:14.100Z,67.97
2019-05-05T06:05:43.558Z,68.01
2019-05-05T06:08:14.212Z,67.51
2019-05-05T06:10:44.291Z,67.07
2019-05-05T06:13:15.308Z,66.22
2019-05-05T06:15:44.409Z,65.30
2019-05-05T06:18:13.947Z,64.35
2019-05-05T06:20:44.477Z,62.48
2019-05-05T06:23:14.759Z,60.78
2019-05-05T06:25:44.463Z,60.02
2019-05-05T06:28:14.475Z,59.05
2019-05-05T06:30:44.308Z,57.59
2019-05-05T06:33:13.757Z,55.98
2019-05-05T06:35:44.371Z,53.70
2019-05-05T06:38:13.603Z,52.72
2019-05-05T06:40:44.509Z,51.44
2019-05-05T06:43:14.581Z,50.66
2019-05-05T06:45:44.676Z,49.72
2019-05-05T06:48:13.533Z,48.12
2019-05-05T06:50:43.710Z,46.98
2019-05-05T06:53:13.548Z,45.78
2019-05-05T06:55:44.278Z,45.33
2019-05-05T06:58:13.664Z,43.95
2019-05-05T07:00:44.096Z,43.50
2019-05-05T07:03:13.937Z,43.33
2019-05-05T07:05:43.691Z,42.98
2019-05-05T07:08:13.751Z,43.10
2019-05-05T07:10:44.480Z,43.50
2019-05-05T07:13:13.991Z,43.68
2019-05-05T07:15:43.727Z,43.21
2019-05-05T07:18:14.263Z,43.60
2019-05-05T07:20:44.084Z,43.29
2019-05-05T07:23:14.483Z,43.61
2019-05-05T07:25:45.775Z,42.36
2019-05-05T07:28:14.752Z,41.47
2019-05-05T07:30:44.232Z,42.09
2019-05-05T07:33:14.739Z,41.86
2019-05-05T07:35:56.815Z,40.96
2019-05-05T07:38:17.604Z,41.09
2019-05-05T07:40:46.062Z,40.31
2019-05-05T07:43:14.771Z,40.16
2019-05-05T07:45:44.584Z,40.01
2019-05-05T07:48:13.833Z,40.47
2019-05-05T07:50:45.015Z,40.09
2019-05-05T07:53:17.501Z,39.68
2019-05-05T07:55:43.709Z,40.38
2019-05-05T07:58:13.879Z,40.71
2019-05-05T08:00:43.667Z,40.66
2019-05-05T08:03:14.310Z,40.44
2019-05-05T08:05:44.232Z,40.17
2019-05-05T08:08:13.925Z,39.46
2019-05-05T08:10:43.707Z,38.57
2019-05-05T08:13:14.105Z,38.58
2019-05-05T08:15:56.247Z,36.26
2019-05-05T08:18:18.975Z,35.88
2019-05-05T08:20:49.095Z,35.94
2019-05-05T08:23:29.001Z,34.35
2019-05-05T08:25:50.890Z,33.23
2019-05-05T08:28:21.072Z,33.42
2019-05-05T08:31:03.976Z,32.12
2019-05-05T08:33:33.578Z,31.27
2019-05-05T08:36:04.605Z,30.27
2019-05-05T08:38:34.601Z,29.89
2019-05-05T08:41:04.586Z,29.06
2019-05-05T08:43:34.751Z,29.15
2019-05-05T08:46:04.942Z,29.42
2019-05-05T08:48:34.215Z,29.95
2019-05-05T08:51:04.847Z,30.29
2019-05-05T08:53:42.563Z,29.00
2019-05-05T08:56:04.050Z,30.28
2019-05-05T08:58:34.405Z,30.35
2019-05-05T09:01:04.356Z,28.26
2019-05-05T09:03:33.806Z,27.31
2019-05-05T09:06:04.531Z,28.13
2019-05-05T09:08:34.612Z,30.74
2019-05-05T09:11:04.786Z,32.39
2019-05-05T09:13:34.009Z,32.27
2019-05-05T09:16:03.804Z,31.18
2019-05-05T09:18:33.953Z,29.99
2019-05-05T09:21:04.357Z,28.79
2019-05-05T09:23:58.239Z,27.67
2019-05-05T09:26:18.102Z,25.66
2019-05-05T09:28:48.238Z,26.74
2019-05-05T09:31:16.837Z,27.36
2019-05-05T09:33:45.579Z,27.92
2019-05-05T09:36:14.058Z,27.02
2019-05-05T09:38:44.593Z,27.52
2019-05-05T09:41:14.361Z,28.82
2019-05-05T09:43:44.645Z,30.24
2019-05-05T09:46:14.371Z,30.24
2019-05-05T09:48:44.043Z,31.12
2019-05-05T09:51:13.644Z,28.45
2019-05-05T09:53:44.612Z,27.98
2019-05-05T09:56:14.437Z,27.57
2019-05-05T09:58:44.067Z,28.95
2019-05-05T10:01:14.034Z,29.89
2019-05-05T10:03:44.233Z,28.35
2019-05-05T10:06:14.242Z,29.73
2019-05-05T10:08:44.682Z,30.96
2019-05-05T10:11:16.381Z,32.33
2019-05-05T10:13:44.301Z,33.34
2019-05-05T10:16:14.288Z,33.95
2019-05-05T10:18:44.680Z,35.14
2019-05-05T10:21:13.832Z,35.67
2019-05-05T10:23:44.161Z,35.02
2019-05-05T10:26:14.790Z,35.08
2019-05-05T10:28:44.477Z,33.93
2019-05-05T10:31:13.851Z,34.39
2019-05-05T10:33:44.385Z,33.63
2019-05-05T10:36:13.816Z,33.41
2019-05-05T10:38:44.569Z,31.70
2019-05-05T10:41:13.526Z,31.15
2019-05-05T10:43:43.737Z,31.28
2019-05-05T10:46:14.224Z,29.11
2019-05-05T10:48:44.454Z,27.75
2019-05-05T10:51:12.699Z,27.90
2019-05-05T10:53:41.111Z,28.70
2019-05-05T10:56:09.552Z,29.52
2019-05-05T10:58:38.028Z,29.86
2019-05-05T11:01:06.903Z,30.07
2019-05-05T11:03:35.371Z,29.30
2019-05-05T11:06:04.581Z,29.68
2019-05-05T11:08:34.782Z,29.97
2019-05-05T11:11:04.264Z,30.43
2019-05-05T11:13:34.441Z,31.02
2019-05-05T11:16:03.972Z,31.35
2019-05-05T11:18:34.497Z,31.82
2019-05-05T11:21:03.997Z,34.45
2019-05-05T11:23:34.577Z,35.16
2019-05-05T11:26:03.047Z,34.79
2019-05-05T11:28:31.432Z,34.82
2019-05-05T11:30:59.886Z,34.46
2019-05-05T11:33:35.839Z,33.76
2019-05-05T11:36:20.020Z,32.47
2019-05-05T11:38:48.520Z,32.22
2019-05-05T11:41:16.925Z,30.61
2019-05-05T11:43:45.710Z,30.74
2019-05-05T11:46:14.317Z,29.94
2019-05-05T11:48:43.921Z,30.29
2019-05-05T11:51:14.890Z,30.26
2019-05-05T11:53:44.690Z,30.12
2019-05-05T11:56:14.488Z,30.13
2019-05-05T11:58:44.216Z,28.62
2019-05-05T12:01:13.841Z,23.77
2019-05-05T12:03:44.369Z,17.29
2019-05-05T12:06:14.719Z,15.98
2019-05-05T12:08:45.733Z,14.99
2019-05-05T12:11:15.126Z,17.47
2019-05-05T12:13:43.899Z,20.22
2019-05-05T12:16:14.095Z,23.61
2019-05-05T12:18:44.201Z,25.08
2019-05-05T12:21:14.012Z,26.85
2019-05-05T12:23:44.415Z,28.19
2019-05-05T12:26:17.643Z,29.00
2019-05-05T12:28:48.091Z,30.06
2019-05-05T12:31:18.090Z,30.29
2019-05-05T12:33:47.329Z,29.72
2019-05-05T12:36:15.762Z,30.19
2019-05-05T12:38:44.232Z,30.20
2019-05-05T12:41:14.617Z,30.64
2019-05-05T12:43:44.190Z,30.93
2019-05-05T12:46:14.485Z,29.92
2019-05-05T12:48:47.522Z,30.07
2019-05-05T12:51:16.107Z,30.70
2019-05-05T12:53:44.481Z,30.04
2019-05-05T12:56:14.606Z,30.03
2019-05-05T12:58:44.034Z,29.89
2019-05-05T13:01:29.600Z,29.87
2019-05-05T13:03:59.079Z,30.04
2019-05-05T13:06:27.610Z,29.48
2019-05-05T13:08:56.008Z,28.50
2019-05-05T13:11:24.711Z,28.68
2019-05-05T13:13:54.550Z,28.57
2019-05-05T13:16:25.076Z,28.87
2019-05-05T13:18:54.001Z,29.45
2019-05-05T13:21:30.649Z,29.63
2019-05-05T13:24:13.750Z,29.61
2019-05-05T13:26:46.839Z,30.11
2019-05-05T13:29:15.218Z,30.27
2019-05-05T13:31:44.295Z,30.83
2019-05-05T13:34:13.704Z,30.20
2019-05-05T13:36:44.125Z,30.32
2019-05-05T13:39:14.438Z,29.75
2019-05-05T13:41:44.882Z,29.70
2019-05-05T13:44:14.928Z,30.12
2019-05-05T13:46:44.287Z,30.78
2019-05-05T13:49:17.452Z,31.47
2019-05-05T13:51:46.242Z,31.84
2019-05-05T13:54:15.036Z,31.00
2019-05-05T13:56:44.186Z,31.56
2019-05-05T13:59:14.080Z,31.33
2019-05-05T14:01:44.819Z,29.40
2019-05-05T14:04:13.675Z,28.40
2019-05-05T14:06:44.015Z,28.93
2019-05-05T14:09:13.799Z,29.50
2019-05-05T14:11:44.409Z,29.14
2019-05-05T14:14:13.780Z,26.13
2019-05-05T14:16:44.651Z,24.90
2019-05-05T14:19:14.664Z,22.20
2019-05-05T14:21:44.618Z,22.16
2019-05-05T14:24:17.697Z,22.92
2019-05-05T14:26:46.145Z,23.62
2019-05-05T14:29:16.280Z,25.06
2019-05-05T14:31:45.354Z,25.01
2019-05-05T14:34:21.211Z,25.29
2019-05-05T14:36:53.401Z,24.23
2019-05-05T14:39:23.795Z,23.67
2019-05-05T14:41:53.833Z,23.31
2019-05-05T14:44:24.048Z,23.75
2019-05-05T14:46:52.902Z,24.99
2019-05-05T14:49:21.368Z,26.67
2019-05-05T14:51:49.876Z,26.87
2019-05-05T14:54:18.556Z,27.73
2019-05-05T14:56:46.993Z,28.87
2019-05-05T14:59:15.716Z,29.64
2019-05-05T15:01:44.766Z,29.85
2019-05-05T15:04:15.015Z,30.77
2019-05-05T15:06:47.921Z,30.35
2019-05-05T15:09:26.728Z,29.98
2019-05-05T15:12:14.328Z,30.41
2019-05-05T15:14:43.970Z,30.74
2019-05-05T15:17:14.164Z,30.52
2019-05-05T15:19:43.570Z,30.99
2019-05-05T15:22:14.856Z,30.91
2019-05-05T15:24:44.137Z,31.31
2019-05-05T15:27:12.958Z,31.56
2019-05-05T15:29:43.462Z,32.20
2019-05-05T15:32:11.541Z,32.01
2019-05-05T15:34:39.929Z,32.35
2019-05-05T15:37:08.483Z,32.29
2019-05-05T15:39:36.975Z,32.64
2019-05-05T15:42:05.475Z,32.48
2019-05-05T15:44:34.509Z,32.22
2019-05-05T15:47:03.117Z,31.90
2019-05-05T15:49:31.960Z,32.34
2019-05-05T15:52:00.449Z,32.28
2019-05-05T15:54:28.882Z,32.54
2019-05-05T15:57:05.321Z,32.63
2019-05-05T15:59:27.509Z,32.64
2019-05-05T16:01:56.030Z,32.88
2019-05-05T16:04:24.476Z,32.94
2019-05-05T16:06:54.098Z,33.44
2019-05-05T16:09:22.909Z,33.52
2019-05-05T16:11:54.415Z,32.96
2019-05-05T16:14:23.823Z,33.13
2019-05-05T16:16:56.831Z,32.90
2019-05-05T16:19:28.096Z,32.88
2019-05-05T16:21:58.458Z,33.37
2019-05-05T16:24:28.597Z,32.90
2019-05-05T16:26:57.011Z,33.58
2019-05-05T16:29:25.363Z,33.60
2019-05-05T16:31:53.892Z,33.90
2019-05-05T16:34:23.526Z,33.81
2019-05-05T16:36:54.454Z,33.76
2019-05-05T16:39:22.698Z,33.02
2019-05-05T16:41:51.180Z,33.32
2019-05-05T16:44:19.637Z,33.89
2019-05-05T16:46:48.087Z,33.65
2019-05-05T16:49:16.531Z,32.76
2019-05-05T16:52:00.799Z,32.98
2019-05-05T16:54:33.640Z,33.03
2019-05-05T16:57:03.938Z,33.42
2019-05-05T16:59:34.123Z,33.75
2019-05-05T17:02:04.741Z,33.48
2019-05-05T17:04:35.524Z,33.70
2019-05-05T17:07:04.078Z,33.97
2019-05-05T17:09:34.450Z,33.46
2019-05-05T17:12:13.953Z,33.82
2019-05-05T17:14:44.426Z,34.05
2019-05-05T17:17:20.590Z,34.18
2019-05-05T17:19:50.683Z,34.76
2019-05-05T17:22:20.819Z,34.67
2019-05-05T17:24:49.340Z,33.88
2019-05-05T17:27:17.747Z,34.16
2019-05-05T17:29:46.279Z,34.29
2019-05-05T17:32:14.784Z,34.82
2019-05-05T17:34:44.893Z,34.75
2019-05-05T17:37:13.540Z,34.35
2019-05-05T17:39:43.805Z,34.86
2019-05-05T17:42:14.211Z,35.04
2019-05-05T17:44:44.448Z,35.28
2019-05-05T17:47:20.594Z,34.81
2019-05-05T17:50:06.789Z,35.31
2019-05-05T17:52:53.766Z,35.63
2019-05-05T17:55:33.798Z,35.45
2019-05-05T17:58:02.889Z,35.71
2019-05-05T18:00:34.294Z,35.83
2019-05-05T18:03:04.378Z,35.91
2019-05-05T18:05:54.529Z,36.38
2019-05-05T18:08:36.772Z,36.64
2019-05-05T18:11:09.890Z,37.00
2019-05-05T18:13:45.384Z,35.86
2019-05-05T18:16:15.488Z,36.49
2019-05-05T18:18:44.479Z,36.71
2019-05-05T18:21:14.246Z,37.26
2019-05-05T18:23:43.847Z,37.14
2019-05-05T18:26:13.667Z,37.11
2019-05-05T18:28:44.331Z,37.38
2019-05-05T18:31:13.872Z,37.93
2019-05-05T18:33:42.688Z,38.00
2019-05-05T18:36:11.178Z,37.70
2019-05-05T18:38:39.569Z,38.37
2019-05-05T18:41:20.376Z,37.88
2019-05-05T18:43:59.383Z,38.10
2019-05-05T18:46:27.827Z,37.94
2019-05-05T18:48:56.625Z,37.91
2019-05-05T18:51:25.511Z,38.19
2019-05-05T18:53:55.051Z,38.27
2019-05-05T18:56:24.010Z,38.63
2019-05-05T18:58:54.259Z,39.08
2019-05-05T19:01:30.229Z,38.68
2019-05-05T19:04:04.249Z,38.88
2019-05-05T19:06:37.607Z,38.90
2019-05-05T19:09:10.851Z,39.40
2019-05-05T19:11:39.590Z,39.75
2019-05-05T19:14:08.047Z,39.48
2019-05-05T19:16:36.421Z,39.50
2019-05-05T19:19:05.078Z,39.42
2019-05-05T19:21:41.408Z,39.69
2019-05-05T19:24:10.032Z,39.90
2019-05-05T19:26:38.411Z,40.18
2019-05-05T19:29:06.969Z,40.39
2019-05-05T19:31:36.574Z,40.26
2019-05-05T19:34:05.386Z,40.27
2019-05-05T19:36:34.288Z,40.61
2019-05-05T19:39:04.116Z,40.84
2019-05-05T19:41:34.770Z,41.33
2019-05-05T19:44:04.696Z,41.55
2019-05-05T19:46:47.424Z,41.50
2019-05-05T19:49:17.143Z,41.62
2019-05-05T19:51:46.639Z,42.07
2019-05-05T19:54:15.167Z,42.30
2019-05-05T19:56:44.720Z,42.77
2019-05-05T19:59:13.840Z,43.05
2019-05-05T20:01:44.824Z,43.00
2019-05-05T20:04:14.666Z,43.09
2019-05-05T20:06:44.257Z,43.27
2019-05-05T20:09:14.125Z,43.20
2019-05-05T20:11:43.734Z,43.50
2019-05-05T20:14:14.843Z,43.79
2019-05-05T20:17:04.334Z,43.75
2019-05-05T20:19:34.713Z,43.65
2019-05-05T20:22:03.245Z,43.95
2019-05-05T20:24:33.528Z,44.48
2019-05-05T20:27:01.863Z,44.80
2019-05-05T20:29:30.234Z,44.12
2019-05-05T20:31:58.696Z,44.43
2019-05-05T20:34:33.911Z,44.83
2019-05-05T20:37:09.228Z,45.17
2019-05-05T20:39:38.534Z,45.39
2019-05-05T20:42:08.402Z,45.21
2019-05-05T20:44:37.517Z,45.50
2019-05-05T20:47:05.962Z,45.65
2019-05-05T20:49:34.977Z,45.89
2019-05-05T20:52:03.817Z,45.54
2019-05-05T20:54:32.443Z,45.35
2019-05-05T20:57:00.942Z,45.54
2019-05-05T20:59:31.005Z,45.88
2019-05-05T21:01:59.950Z,46.04
2019-05-05T21:04:28.444Z,46.31
2019-05-05T21:06:56.873Z,46.80
2019-05-05T21:09:25.305Z,46.86
2019-05-05T21:11:54.742Z,46.88
2019-05-05T21:14:33.713Z,46.40
2019-05-05T21:16:54.759Z,46.46
2019-05-05T21:19:24.744Z,46.31
2019-05-05T21:21:55.073Z,46.53
2019-05-05T21:24:24.033Z,46.69
2019-05-05T21:26:56.596Z,46.58
2019-05-05T21:29:37.698Z,46.42
2019-05-05T21:31:55.549Z,46.46
2019-05-05T21:34:24.900Z,46.40
2019-05-05T21:36:54.179Z,46.50
2019-05-05T21:39:24.765Z,46.47
2019-05-05T21:41:52.949Z,46.63
2019-05-05T21:44:21.403Z,46.90
2019-05-05T21:46:49.822Z,46.81
2019-05-05T21:49:18.252Z,46.88
2019-05-05T21:51:48.752Z,47.33
2019-05-05T21:54:18.762Z,47.59
2019-05-05T21:56:54.846Z,47.73
2019-05-05T21:59:23.704Z,47.58
2019-05-05T22:01:52.293Z,48.07
2019-05-05T22:04:20.740Z,48.05
2019-05-05T22:06:49.187Z,48.11
2019-05-05T22:09:17.605Z,48.24
2019-05-05T22:11:46.013Z,48.11
2019-05-05T22:14:14.360Z,48.18
2019-05-05T22:16:44.590Z,48.20
2019-05-05T22:19:14.613Z,48.25
2019-05-05T22:21:44.832Z,48.18
2019-05-05T22:24:15.865Z,48.56
2019-05-05T22:26:44.914Z,48.46
2019-05-05T22:29:16.802Z,48.63
2019-05-05T22:31:44.081Z,49.00
2019-05-05T22:34:14.549Z,49.02
2019-05-05T22:36:44.823Z,49.04
2019-05-05T22:39:16.568Z,49.14
2019-05-05T22:41:44.512Z,49.28
2019-05-05T22:44:13.887Z,49.24
2019-05-05T22:46:42.768Z,49.46
2019-05-05T22:49:11.207Z,49.57
2019-05-05T22:51:39.977Z,49.46
2019-05-05T22:54:08.415Z,49.64
2019-05-05T22:56:36.857Z,49.85
2019-05-05T22:59:05.826Z,49.80
2019-05-05T23:01:34.323Z,50.04
2019-05-05T23:04:07.409Z,49.96
2019-05-05T23:06:37.833Z,50.20
2019-05-05T23:09:08.907Z,50.23
2019-05-05T23:11:37.344Z,50.50
2019-05-05T23:14:24.747Z,50.71
2019-05-05T23:17:13.418Z,50.76
2019-05-05T23:19:46.532Z,51.01
2019-05-05T23:22:28.833Z,51.30
2019-05-05T23:24:58.869Z,51.44
2019-05-05T23:27:45.258Z,51.75
2019-05-05T23:30:15.807Z,52.06
2019-05-05T23:32:44.533Z,52.09
2019-05-05T23:35:14.262Z,52.34
2019-05-05T23:37:44.874Z,52.44
2019-05-05T23:40:19.202Z,52.74
2019-05-05T23:42:47.568Z,52.59
2019-05-05T23:45:16.415Z,53.13
2019-05-05T23:47:44.857Z,53.11
2019-05-05T23:50:13.499Z,53.38
2019-05-05T23:52:44.264Z,53.60
2019-05-05T23:55:14.232Z,53.87
2019-05-05T23:57:43.733Z,54.05
